Time;durP1;ratioP1;P1;durP2;ratioP2;P2;SDS_P1;SDS_P2;PMS_P1;PMS_P2;Temp;Humidity;BMP_temperature;BMP_pressure;BME280_temperature;BME280_humidity;BME280_pressure;Samples;Min_cycle;Max_cycle;Signal;HPM_P1;HPM_P2
2022/10/30 00:01:03;;;;;;;38.35;17.88;;;;;;;15.18;100.00;101878.91;4868697;29;20056;-72
2022/10/30 00:03:32;;;;;;;36.35;17.23;;;;;;;15.20;100.00;101877.22;4874807;29;20053;-73
2022/10/30 00:06:05;;;;;;;37.53;15.75;;;;;;;15.20;100.00;101882.44;4863298;29;20159;-77
2022/10/30 00:08:34;;;;;;;32.03;15.65;;;;;;;15.19;100.00;101879.81;4867180;29;20044;-77
2022/10/30 00:11:10;;;;;;;38.60;17.27;;;;;;;15.15;100.00;101875.34;4873702;29;20108;-76
2022/10/30 00:13:39;;;;;;;26.67;13.75;;;;;;;15.12;100.00;101867.41;4874347;29;20041;-76
2022/10/30 00:16:09;;;;;;;21.30;11.32;;;;;;;15.12;100.00;101863.13;4874567;29;20076;-76
2022/10/30 00:18:38;;;;;;;23.13;10.60;;;;;;;15.12;100.00;101852.69;4873299;29;20090;-76
2022/10/30 00:21:11;;;;;;;24.52;12.77;;;;;;;15.17;100.00;101855.41;4875594;29;20068;-76
2022/10/30 00:23:45;;;;;;;21.98;11.73;;;;;;;15.17;100.00;101856.28;4869768;29;20419;-76
2022/10/30 00:26:14;;;;;;;25.98;13.27;;;;;;;15.18;100.00;101854.56;4869822;29;20112;-76
2022/10/30 00:28:42;;;;;;;26.50;12.57;;;;;;;15.18;100.00;101855.44;4870551;29;20121;-76
2022/10/30 00:31:11;;;;;;;20.73;10.80;;;;;;;15.15;100.00;101847.53;4867054;29;20117;-76
2022/10/30 00:33:40;;;;;;;25.70;13.23;;;;;;;15.16;100.00;101849.31;4870403;29;20049;-76
2022/10/30 00:36:10;;;;;;;23.90;11.52;;;;;;;15.17;100.00;101845.00;4874924;29;20116;-76
2022/10/30 00:38:39;;;;;;;20.48;10.95;;;;;;;15.16;100.00;101854.50;4871617;29;20112;-76
2022/10/30 00:41:07;;;;;;;18.70;10.43;;;;;;;15.15;100.00;101844.94;4873434;29;20528;-76
2022/10/30 00:43:38;;;;;;;21.55;11.30;;;;;;;15.14;100.00;101844.88;4862582;29;20503;-76
2022/10/30 00:46:15;;;;;;;22.65;11.40;;;;;;;15.11;100.00;101848.28;4866108;29;20097;-75
2022/10/30 00:48:46;;;;;;;22.92;11.25;;;;;;;15.09;100.00;101849.97;4866592;29;20057;-76
2022/10/30 00:51:17;;;;;;;20.50;11.10;;;;;;;15.07;100.00;101849.03;4873174;29;20060;-76
2022/10/30 00:53:47;;;;;;;24.63;11.60;;;;;;;14.95;100.00;101839.16;4874827;29;20060;-76
2022/10/30 00:56:19;;;;;;;23.13;11.10;;;;;;;14.99;100.00;101850.56;4872863;29;20053;-73
2022/10/30 00:58:51;;;;;;;21.77;10.68;;;;;;;14.94;100.00;101858.25;4874438;29;20692;-74
2022/10/30 01:01:24;;;;;;;;;;;;;;;14.93;100.00;101860.78;4876587;29;20053;-73
2022/10/30 01:03:55;;;;;;;21.37;11.73;;;;;;;14.91;100.00;101857.25;4872197;29;19938;-71
2022/10/30 01:06:34;;;;;;;22.65;10.65;;;;;;;14.90;100.00;101855.50;4871501;29;20303;-74
2022/10/30 01:09:04;;;;;;;24.85;11.48;;;;;;;14.88;100.00;101864.16;4871360;29;20087;-72
2022/10/30 01:11:32;;;;;;;21.40;10.70;;;;;;;14.87;100.00;101864.13;4879400;29;20052;-72
2022/10/30 01:14:04;;;;;;;25.58;11.60;;;;;;;14.85;100.00;101864.06;4874360;29;20555;-72
2022/10/30 01:16:56;;;;;;;19.70;10.75;;;;;;;14.84;100.00;101864.91;4868561;29;20815;-73
2022/10/30 01:19:35;;;;;;;20.88;11.10;;;;;;;14.82;100.00;101856.16;4875149;29;20052;-72
2022/10/30 01:22:26;;;;;;;21.40;11.48;;;;;;;14.80;100.00;101860.44;4869971;29;20592;-71
2022/10/30 01:25:06;;;;;;;17.58;10.43;;;;;;;14.77;100.00;101860.34;4874386;29;20049;-72
2022/10/30 01:27:45;;;;;;;20.95;10.35;;;;;;;14.75;100.00;101869.84;4875725;29;20053;-72
2022/10/30 01:30:28;;;;;;;21.92;11.15;;;;;;;14.73;100.00;101870.63;4875589;29;20068;-71
2022/10/30 01:33:12;;;;;;;23.85;11.27;;;;;;;14.69;100.00;101880.09;4875024;29;20060;-72
2022/10/30 01:35:48;;;;;;;17.92;9.73;;;;;;;14.65;100.00;101886.03;4875221;29;20064;-70
2022/10/30 01:38:23;;;;;;;19.95;10.98;;;;;;;14.66;100.00;101893.03;4874059;29;20092;-70
2022/10/30 01:40:52;;;;;;;20.67;10.15;;;;;;;14.64;100.00;101890.34;4872680;29;20045;-70
2022/10/30 01:43:21;;;;;;;23.60;11.05;;;;;;;14.63;100.00;101883.38;4874772;29;20048;-70
2022/10/30 01:46:15;;;;;;;22.13;10.07;;;;;;;14.60;100.00;101882.41;4871017;29;20056;-70
2022/10/30 01:48:58;;;;;;;19.58;9.55;;;;;;;14.53;100.00;101881.28;4872086;29;20101;-71
2022/10/30 01:51:39;;;;;;;18.42;10.40;;;;;;;14.46;100.00;101887.16;4871410;29;20109;-70
2022/10/30 01:54:20;;;;;;;20.85;10.20;;;;;;;14.42;100.00;101893.09;4867362;29;20104;-70
2022/10/30 01:57:00;;;;;;;21.63;11.25;;;;;;;14.41;100.00;101900.03;4873433;29;20058;-70
2022/10/30 01:59:33;;;;;;;20.88;11.35;;;;;;;14.43;100.00;101900.03;4876007;29;20098;-71
2022/10/30 02:02:01;;;;;;;20.20;10.52;;;;;;;14.44;100.00;101896.63;4873346;29;20049;-71
2022/10/30 02:04:31;;;;;;;20.05;9.90;;;;;;;14.42;100.00;101886.16;4872088;29;20113;-72
2022/10/30 02:07:00;;;;;;;20.33;9.73;;;;;;;14.42;100.00;101878.34;4873227;29;20049;-72
2022/10/30 02:09:30;;;;;;;20.80;9.85;;;;;;;14.40;100.00;101880.00;4874186;29;20060;-72
2022/10/30 02:12:00;;;;;;;19.67;10.10;;;;;;;14.38;100.00;101881.69;4870151;29;20053;-72
2022/10/30 02:14:33;;;;;;;18.70;10.15;;;;;;;14.37;100.00;101884.25;4875594;29;20060;-73
2022/10/30 02:17:04;;;;;;;16.42;10.05;;;;;;;14.36;100.00;101887.66;4871943;29;20495;-73
2022/10/30 02:19:33;;;;;;;19.60;9.38;;;;;;;14.30;100.00;101892.72;4877207;29;20053;-74
2022/10/30 02:22:03;;;;;;;20.33;9.70;;;;;;;14.24;100.00;101890.78;4877123;29;20055;-74
2022/10/30 02:24:32;;;;;;;22.92;10.60;;;;;;;14.19;100.00;101889.75;4873451;29;21157;-73
2022/10/30 02:27:01;;;;;;;21.13;11.13;;;;;;;14.12;100.00;101892.97;4869696;29;20111;-73
2022/10/30 02:29:30;;;;;;;17.83;9.45;;;;;;;14.08;100.00;101875.50;4870388;29;20053;-73
2022/10/30 02:31:58;;;;;;;19.38;9.60;;;;;;;14.06;100.00;101875.44;4877131;29;20077;-74
2022/10/30 02:34:27;;;;;;;21.88;9.82;;;;;;;14.06;100.00;101882.34;4873945;29;20061;-74
2022/10/30 02:36:55;;;;;;;18.92;9.23;;;;;;;14.04;100.00;101880.59;4871926;29;20105;-74
2022/10/30 02:39:25;;;;;;;18.48;10.20;;;;;;;14.06;100.00;101877.16;4874660;29;20048;-74
2022/10/30 02:41:54;;;;;;;26.05;10.88;;;;;;;14.04;100.00;101879.69;4875051;29;20569;-74
2022/10/30 02:44:22;;;;;;;19.88;10.27;;;;;;;14.02;100.00;101879.66;4872701;29;20048;-74
2022/10/30 02:46:51;;;;;;;21.92;10.38;;;;;;;14.03;100.00;101884.03;4869146;29;20057;-74
2022/10/30 02:49:19;;;;;;;21.27;10.43;;;;;;;14.03;100.00;101881.41;4871908;29;20109;-74
2022/10/30 02:51:48;;;;;;;17.77;9.27;;;;;;;14.00;100.00;101878.72;4872325;29;20057;-74
2022/10/30 02:54:16;;;;;;;17.85;9.95;;;;;;;13.97;100.00;101882.94;4872411;29;20057;-74
2022/10/30 02:56:46;;;;;;;21.20;10.25;;;;;;;13.95;100.00;101884.59;4873195;29;20707;-73
2022/10/30 02:59:15;;;;;;;20.50;10.68;;;;;;;13.95;100.00;101879.38;4872583;29;20127;-72
2022/10/30 03:01:44;;;;;;;17.50;9.60;;;;;;;13.94;100.00;101888.03;4869369;29;20056;-72
2022/10/30 03:04:12;;;;;;;21.25;10.27;;;;;;;13.93;100.00;101889.75;4872402;29;20052;-71
2022/10/30 03:06:41;;;;;;;16.48;9.00;;;;;;;13.94;100.00;101882.84;4874724;29;20052;-71
2022/10/30 03:09:09;;;;;;;20.67;9.27;;;;;;;13.93;100.00;101875.88;4865203;29;20045;-72
2022/10/30 03:11:38;;;;;;;20.48;8.82;;;;;;;13.90;100.00;101880.94;4867310;29;20453;-71
2022/10/30 03:14:09;;;;;;;19.33;9.38;;;;;;;13.84;100.00;101886.84;4870188;29;20412;-72
2022/10/30 03:16:38;;;;;;;18.67;8.95;;;;;;;13.82;100.00;101875.50;4867750;29;20705;-72
2022/10/30 03:19:07;;;;;;;18.42;8.93;;;;;;;13.83;100.00;101874.66;4873515;29;20056;-70
2022/10/30 03:21:35;;;;;;;16.15;8.18;;;;;;;13.86;100.00;101864.38;4871951;29;20114;-71
2022/10/30 03:24:04;;;;;;;16.85;8.85;;;;;;;13.89;100.00;101869.66;4870028;29;20475;-71
2022/10/30 03:26:32;;;;;;;21.80;10.18;;;;;;;13.92;100.00;101863.69;4871370;29;20044;-71
2022/10/30 03:29:01;;;;;;;23.10;9.93;;;;;;;13.93;100.00;101860.25;4875675;29;20048;-72
2022/10/30 03:31:32;;;;;;;23.08;10.05;;;;;;;13.94;100.00;101860.28;4869798;29;20564;-72
2022/10/30 03:34:01;;;;;;;21.25;10.45;;;;;;;13.96;100.00;101863.84;4871256;29;20654;-73
2022/10/30 03:36:29;;;;;;;22.05;9.50;;;;;;;13.95;100.00;101855.97;4872587;29;20619;-72
2022/10/30 03:38:58;;;;;;;23.50;11.07;;;;;;;13.91;100.00;101852.41;4865576;29;20049;-73
2022/10/30 03:41:26;;;;;;;19.73;10.07;;;;;;;13.87;100.00;101854.84;4871549;29;20770;-73
2022/10/30 03:43:55;;;;;;;23.80;9.35;;;;;;;13.83;100.00;101861.66;4866809;29;20054;-74
2022/10/30 03:46:24;;;;;;;17.48;9.35;;;;;;;13.82;100.00;101858.16;4862661;29;20141;-72
2022/10/30 03:48:54;;;;;;;25.10;9.48;;;;;;;13.85;100.00;101848.72;4867332;29;20049;-73
2022/10/30 03:51:23;;;;;;;20.85;10.45;;;;;;;13.83;100.00;101859.03;4875071;29;20049;-71
2022/10/30 03:53:51;;;;;;;18.65;9.45;;;;;;;13.85;100.00;101857.38;4868761;29;20045;-72
2022/10/30 03:56:20;;;;;;;16.95;9.23;;;;;;;13.88;100.00;101857.50;4861134;29;20056;-73
2022/10/30 03:58:49;;;;;;;18.70;9.70;;;;;;;13.91;100.00;101861.94;4857650;29;20049;-72
2022/10/30 04:01:17;;;;;;;19.63;9.98;;;;;;;13.92;100.00;101864.56;4873069;29;20546;-72
2022/10/30 04:03:46;;;;;;;23.75;9.40;;;;;;;13.92;100.00;101859.34;4872830;29;20068;-72
2022/10/30 04:06:16;;;;;;;19.92;9.13;;;;;;;13.93;100.00;101858.53;4871844;29;20506;-72
2022/10/30 04:08:45;;;;;;;17.92;9.55;;;;;;;13.94;100.00;101844.69;4865479;29;20053;-72
2022/10/30 04:11:13;;;;;;;23.85;11.13;;;;;;;13.90;100.00;101840.19;4869231;29;20056;-73
2022/10/30 04:13:42;;;;;;;25.27;9.13;;;;;;;13.87;100.00;101836.63;4871733;29;20440;-73
2022/10/30 04:16:10;;;;;;;19.38;10.15;;;;;;;13.87;100.00;101842.72;4866916;29;20045;-72
2022/10/30 04:18:39;;;;;;;18.65;9.15;;;;;;;13.88;100.00;101841.91;4873993;29;20571;-73
2022/10/30 04:21:08;;;;;;;16.42;9.43;;;;;;;13.89;100.00;101845.38;4873268;29;20468;-73
2022/10/30 04:23:38;;;;;;;19.63;9.73;;;;;;;13.89;100.00;101838.44;4871961;29;20487;-73
2022/10/30 04:26:06;;;;;;;16.83;9.02;;;;;;;13.91;100.00;101848.91;4866833;29;20444;-73
2022/10/30 04:28:35;;;;;;;18.83;9.40;;;;;;;13.81;100.00;101830.41;4865725;29;20080;-73
2022/10/30 04:31:03;;;;;;;16.70;9.10;;;;;;;13.92;100.00;101837.66;4873700;29;20543;-76
2022/10/30 04:33:32;;;;;;;15.52;9.00;;;;;;;13.89;100.00;101832.38;4868457;29;20502;-72
2022/10/30 04:36:01;;;;;;;16.13;8.77;;;;;;;13.87;100.00;101828.84;4868201;29;20059;-71
2022/10/30 04:38:30;;;;;;;17.80;9.02;;;;;;;13.88;100.00;101828.88;4866011;29;20125;-72
2022/10/30 04:41:00;;;;;;;17.45;9.45;;;;;;;13.87;100.00;101826.22;4870032;29;20055;-72
2022/10/30 04:43:29;;;;;;;16.02;8.90;;;;;;;13.86;100.00;101833.16;4871836;29;20495;-73
2022/10/30 04:45:57;;;;;;;17.60;9.48;;;;;;;13.82;100.00;101836.47;4870150;29;20131;-73
2022/10/30 04:48:26;;;;;;;20.73;9.57;;;;;;;13.82;100.00;101844.28;4872333;29;20056;-72
2022/10/30 04:50:55;;;;;;;19.40;9.95;;;;;;;13.80;100.00;101843.34;4872166;29;20052;-73
2022/10/30 04:53:24;;;;;;;19.88;9.07;;;;;;;13.78;100.00;101838.09;4868697;29;20502;-71
2022/10/30 04:55:55;;;;;;;20.45;9.90;;;;;;;13.79;100.00;101844.19;4870915;29;20507;-72
2022/10/30 04:58:25;;;;;;;16.58;9.00;;;;;;;13.82;100.00;101852.09;4873874;29;20132;-72
2022/10/30 05:00:54;;;;;;;17.83;9.00;;;;;;;13.85;100.00;101857.38;4869405;29;20567;-73
2022/10/30 05:03:24;;;;;;;15.93;8.07;;;;;;;13.88;100.00;101848.78;4873151;29;20116;-72
2022/10/30 05:05:58;;;;;;;17.75;8.55;;;;;;;13.90;100.00;101850.63;4870510;29;20064;-74
2022/10/30 05:08:27;;;;;;;20.33;8.50;;;;;;;13.90;100.00;101855.81;4868084;29;20052;-74
2022/10/30 05:10:56;;;;;;;19.30;9.05;;;;;;;13.89;100.00;101848.84;4868792;29;20467;-74
2022/10/30 05:13:26;;;;;;;18.63;7.65;;;;;;;13.84;100.00;101842.63;4872396;29;20701;-74
2022/10/30 05:15:55;;;;;;;23.75;9.90;;;;;;;13.81;100.00;101847.69;4869089;29;20052;-75
2022/10/30 05:18:24;;;;;;;17.85;8.80;;;;;;;13.81;100.00;101852.91;4869749;29;20056;-73
2022/10/30 05:20:52;;;;;;;20.13;10.27;;;;;;;13.76;100.00;101839.75;4873810;29;20113;-72
2022/10/30 05:23:21;;;;;;;17.20;8.50;;;;;;;13.87;100.00;101854.84;4874425;29;20060;-72
2022/10/30 05:25:49;;;;;;;16.83;8.60;;;;;;;13.88;100.00;101862.72;4867315;29;20118;-72
2022/10/30 05:28:18;;;;;;;19.40;8.38;;;;;;;13.90;100.00;101862.75;4861323;29;20049;-72
2022/10/30 05:30:48;;;;;;;19.30;10.32;;;;;;;13.90;100.00;101861.03;4867125;29;20052;-72
2022/10/30 05:33:17;;;;;;;16.23;8.88;;;;;;;13.93;100.00;101866.34;4872984;29;20053;-71
2022/10/30 05:35:46;;;;;;;19.63;9.80;;;;;;;13.93;100.00;101868.94;4858275;29;20444;-71
2022/10/30 05:38:14;;;;;;;18.02;9.13;;;;;;;13.89;100.00;101864.47;4872072;29;20049;-88
2022/10/30 05:40:46;;;;;;;18.50;9.10;;;;;;;13.86;100.00;101859.16;4870731;29;20688;-72
2022/10/30 05:43:15;;;;;;;14.93;9.23;;;;;;;13.90;100.00;101855.81;4869005;29;20049;-70
2022/10/30 05:45:43;;;;;;;16.15;8.98;;;;;;;13.91;100.00;101856.72;4871225;29;20053;-71
2022/10/30 05:48:13;;;;;;;17.58;8.57;;;;;;;13.89;100.00;101861.88;4866998;29;20073;-71
2022/10/30 05:50:42;;;;;;;19.58;9.25;;;;;;;13.89;100.00;101867.06;4877890;29;20053;-72
2022/10/30 05:53:11;;;;;;;14.75;8.23;;;;;;;13.89;100.00;101864.47;4873176;29;20507;-72
2022/10/30 05:55:39;;;;;;;17.67;9.93;;;;;;;13.90;100.00;101868.81;4865827;29;20052;-71
2022/10/30 05:58:08;;;;;;;13.32;7.60;;;;;;;13.90;100.00;101867.94;4865543;29;20049;-71
2022/10/30 06:00:39;;;;;;;18.52;8.77;;;;;;;13.91;100.00;101855.00;4871804;29;20050;-72
2022/10/30 06:03:09;;;;;;;19.45;9.43;;;;;;;13.93;100.00;101866.34;4867575;29;20056;-71
2022/10/30 06:05:39;;;;;;;14.55;8.20;;;;;;;13.94;100.00;101867.22;4871096;29;20061;-71
2022/10/30 06:08:08;;;;;;;17.02;8.38;;;;;;;13.95;100.00;101867.28;4867549;29;20101;-71
2022/10/30 06:10:37;;;;;;;21.30;8.75;;;;;;;13.95;100.00;101869.88;4872331;29;20064;-71
2022/10/30 06:13:07;;;;;;;13.70;7.72;;;;;;;13.94;100.00;101873.31;4876117;29;20499;-72
2022/10/30 06:15:35;;;;;;;15.20;7.65;;;;;;;13.94;100.00;101868.09;4869654;29;20057;-71
2022/10/30 06:18:04;;;;;;;22.05;8.95;;;;;;;13.96;100.00;101865.56;4864934;29;20520;-71
2022/10/30 06:20:33;;;;;;;19.13;8.25;;;;;;;13.98;100.00;101869.09;4865929;29;20511;-70
2022/10/30 06:23:05;;;;;;;16.17;8.98;;;;;;;13.98;100.00;101866.50;4871430;29;20060;-71
2022/10/30 06:25:35;;;;;;;21.37;10.17;;;;;;;13.98;100.00;101864.78;4876848;29;20064;-71
2022/10/30 06:28:03;;;;;;;20.23;9.90;;;;;;;14.00;100.00;101857.03;4876917;29;20071;-70
2022/10/30 06:30:32;;;;;;;17.63;8.45;;;;;;;13.97;100.00;101852.63;4872344;29;20427;-71
2022/10/30 06:33:01;;;;;;;17.88;8.35;;;;;;;13.94;100.00;101846.41;4874462;29;20503;-70
2022/10/30 06:35:30;;;;;;;16.92;8.20;;;;;;;13.90;100.00;101840.19;4872726;29;20491;-72
2022/10/30 06:38:00;;;;;;;13.55;7.03;;;;;;;13.88;100.00;101839.31;4868229;29;20064;-72
2022/10/30 06:40:30;;;;;;;11.68;6.93;;;;;;;13.89;100.00;101854.06;4866791;29;20051;-72
2022/10/30 06:42:59;;;;;;;16.27;8.27;;;;;;;13.90;100.00;101852.34;4873207;29;20101;-71
2022/10/30 06:45:27;;;;;;;16.13;8.43;;;;;;;13.90;100.00;101858.41;4874315;29;20049;-71
2022/10/30 06:47:56;;;;;;;19.17;8.18;;;;;;;13.91;100.00;101857.59;4869545;29;20141;-71
2022/10/30 06:50:25;;;;;;;15.05;8.02;;;;;;;13.91;100.00;101857.59;4874622;29;20047;-72
2022/10/30 06:52:54;;;;;;;15.13;8.52;;;;;;;13.90;100.00;101863.63;4869806;29;20049;-71
2022/10/30 06:55:23;;;;;;;17.95;7.30;;;;;;;13.89;100.00;101864.47;4871581;29;20041;-71
2022/10/30 06:57:57;;;;;;;14.98;7.93;;;;;;;13.87;100.00;101858.31;4871520;29;20507;-72
2022/10/30 07:00:26;;;;;;;14.93;8.45;;;;;;;13.83;100.00;101859.03;4871373;29;20722;-71
2022/10/30 07:03:03;;;;;;;17.50;8.00;;;;;;;13.83;100.00;101864.25;4869826;29;20444;-71
2022/10/30 07:05:32;;;;;;;15.90;8.55;;;;;;;13.83;100.00;101859.03;4871723;29;20073;-71
2022/10/30 07:08:00;;;;;;;17.45;8.70;;;;;;;13.82;100.00;101852.09;4870416;29;20092;-71
2022/10/30 07:10:29;;;;;;;14.40;7.97;;;;;;;13.82;100.00;101857.28;4869760;29;20056;-72
2022/10/30 07:12:59;;;;;;;16.30;8.30;;;;;;;13.79;100.00;101849.41;4872064;29;20057;-71
2022/10/30 07:15:28;;;;;;;17.20;8.73;;;;;;;13.81;100.00;101855.50;4870118;29;20057;-71
2022/10/30 07:17:58;;;;;;;15.65;8.70;;;;;;;13.82;100.00;101852.09;4872939;29;20495;-71
2022/10/30 07:20:27;;;;;;;19.80;8.45;;;;;;;13.84;100.00;101847.81;4867796;29;20162;-72
2022/10/30 07:22:56;;;;;;;16.25;8.77;;;;;;;13.87;100.00;101842.72;4869973;29;20049;-71
2022/10/30 07:25:25;;;;;;;16.60;9.02;;;;;;;13.85;100.00;101852.19;4874172;29;20056;-71
2022/10/30 07:27:54;;;;;;;20.50;10.20;;;;;;;13.88;100.00;101854.91;4871073;29;20090;-72
2022/10/30 07:30:26;;;;;;;17.73;9.82;;;;;;;13.90;100.00;101861.03;4872217;29;20045;-72
2022/10/30 07:33:02;;;;;;;18.40;10.35;;;;;;;13.91;100.00;101859.31;4871689;29;20049;-72
2022/10/30 07:35:31;;;;;;;15.23;9.32;;;;;;;13.92;100.00;101853.28;4862551;29;20518;-72
2022/10/30 07:38:04;;;;;;;17.00;10.10;;;;;;;13.93;100.00;101858.53;4885498;29;20057;-71
2022/10/30 07:40:33;;;;;;;22.75;10.57;;;;;;;13.96;100.00;101855.16;4872025;29;20079;-72
2022/10/30 07:43:03;;;;;;;23.40;11.10;;;;;;;13.96;100.00;101863.84;4872802;29;20064;-71
2022/10/30 07:45:34;;;;;;;19.80;10.98;;;;;;;13.96;100.00;101866.44;4871628;29;20055;-72
2022/10/30 07:48:02;;;;;;;21.15;11.48;;;;;;;13.97;100.00;101859.50;4867792;29;20053;-72
2022/10/30 07:50:31;;;;;;;21.23;11.23;;;;;;;13.95;100.00;101859.47;4866066;29;20045;-72
2022/10/30 07:52:59;;;;;;;21.15;11.98;;;;;;;13.89;100.00;101851.47;4867574;29;20060;-71
2022/10/30 07:55:28;;;;;;;23.67;11.82;;;;;;;13.90;100.00;101854.94;4872101;29;20214;-72
2022/10/30 07:57:56;;;;;;;22.30;11.32;;;;;;;13.90;100.00;101848.00;4872349;29;20061;-72
2022/10/30 08:00:25;;;;;;;26.38;13.32;;;;;;;13.91;100.00;101846.31;4865662;29;20477;-72
2022/10/30 08:02:57;;;;;;;27.63;12.43;;;;;;;13.91;100.00;101860.19;4868991;29;20353;-72
2022/10/30 08:05:26;;;;;;;27.20;13.43;;;;;;;13.93;100.00;101865.47;4870642;29;20127;-72
2022/10/30 08:07:55;;;;;;;24.52;12.02;;;;;;;13.91;100.00;101862.81;4872318;29;20061;-72
2022/10/30 08:10:23;;;;;;;24.75;12.82;;;;;;;13.90;100.00;101858.41;4871717;29;20077;-71
2022/10/30 08:12:52;;;;;;;26.85;12.60;;;;;;;13.92;100.00;101861.97;4871168;29;20496;-71
2022/10/30 08:15:28;;;;;;;23.25;11.63;;;;;;;13.97;100.00;101851.69;4869361;29;20050;-71
2022/10/30 08:17:58;;;;;;;22.30;12.40;;;;;;;14.01;100.00;101853.59;4871558;29;20388;-72
2022/10/30 08:20:27;;;;;;;25.30;13.00;;;;;;;14.02;100.00;101845.84;4872477;29;20499;-71
2022/10/30 08:22:56;;;;;;;25.90;12.93;;;;;;;14.05;100.00;101852.84;4865659;29;20060;-71
2022/10/30 08:25:27;;;;;;;31.88;12.95;;;;;;;14.08;100.00;101855.53;4865585;29;20049;-71
2022/10/30 08:27:58;;;;;;;28.35;13.50;;;;;;;14.10;100.00;101863.41;4866191;29;20115;-71
2022/10/30 08:30:28;;;;;;;29.90;13.65;;;;;;;14.12;100.00;101866.94;4873351;29;20492;-71
2022/10/30 08:33:00;;;;;;;28.27;13.35;;;;;;;14.09;100.00;101862.53;4874200;29;20491;-71
2022/10/30 08:35:29;;;;;;;31.60;13.60;;;;;;;14.07;100.00;101860.72;4873112;29;20057;-72
2022/10/30 08:37:58;;;;;;;26.45;12.68;;;;;;;14.01;100.00;101866.59;4876940;29;20109;-71
2022/10/30 08:40:28;;;;;;;31.73;14.93;;;;;;;14.00;100.00;101852.69;4870476;29;20642;-71
2022/10/30 08:42:58;;;;;;;31.42;14.27;;;;;;;14.01;100.00;101864.88;4869132;29;20458;-71
2022/10/30 08:45:26;;;;;;;30.30;13.75;;;;;;;13.99;100.00;101863.94;4870964;29;20101;-72
2022/10/30 08:48:02;;;;;;;33.50;12.90;;;;;;;14.00;100.00;101863.13;4870556;29;20057;-72
2022/10/30 08:50:31;;;;;;;29.63;12.90;;;;;;;13.98;100.00;101862.16;4868319;29;20057;-72
2022/10/30 08:53:03;;;;;;;26.90;12.40;;;;;;;13.97;100.00;101859.50;4869040;29;20053;-72
2022/10/30 08:55:32;;;;;;;34.65;11.82;;;;;;;13.94;100.00;101868.09;4871291;29;20087;-71
2022/10/30 08:58:01;;;;;;;23.27;11.05;;;;;;;13.95;100.00;101858.56;4869655;29;20129;-71
2022/10/30 09:00:30;;;;;;;20.45;10.35;;;;;;;13.99;100.00;101871.72;4870670;29;20133;-71
2022/10/30 09:03:00;;;;;;;19.17;8.88;;;;;;;14.02;100.00;101876.19;4868897;29;20059;-71
2022/10/30 09:05:28;;;;;;;12.95;7.50;;;;;;;14.05;100.00;101873.69;4872260;29;20065;-71
2022/10/30 09:07:59;;;;;;;13.23;6.43;;;;;;;14.06;100.00;101875.44;4871399;29;20052;-71
2022/10/30 09:10:28;;;;;;;15.27;5.00;;;;;;;14.07;100.00;101873.72;4871706;29;20045;-71
2022/10/30 09:12:57;;;;;;;10.85;5.43;;;;;;;14.06;100.00;101874.56;4874984;29;20053;-71
2022/10/30 09:15:26;;;;;;;8.43;3.67;;;;;;;14.04;100.00;101880.59;4870014;29;20061;-71
2022/10/30 09:18:01;;;;;;;9.88;4.13;;;;;;;13.98;100.00;101880.38;4873925;29;20052;-72
2022/10/30 09:20:30;;;;;;;11.20;4.80;;;;;;;13.95;100.00;101877.69;4878011;29;20064;-72
2022/10/30 09:22:59;;;;;;;7.72;4.10;;;;;;;13.88;100.00;101865.31;4877725;29;20491;-71
2022/10/30 09:25:27;;;;;;;7.55;3.50;;;;;;;13.92;100.00;101876.69;4873937;29;20060;-72
2022/10/30 09:27:56;;;;;;;6.50;3.38;;;;;;;13.87;100.00;101871.34;4873662;29;20053;-72
2022/10/30 09:30:25;;;;;;;8.80;4.13;;;;;;;13.84;100.00;101873.84;4875692;29;20048;-71
2022/10/30 09:32:59;;;;;;;5.68;3.85;;;;;;;13.81;100.00;101882.44;4872740;29;20053;-71
2022/10/30 09:35:28;;;;;;;7.43;3.53;;;;;;;13.78;100.00;101881.44;4871350;29;20499;-72
2022/10/30 09:37:56;;;;;;;6.40;3.72;;;;;;;13.74;100.00;101893.47;4873448;29;20054;-71
2022/10/30 09:40:35;;;;;;;5.35;3.13;;;;;;;13.72;100.00;101889.00;4877592;29;20045;-71
2022/10/30 09:43:11;;;;;;;9.52;3.20;;;;;;;13.74;100.00;101898.66;4874632;29;20108;-71
2022/10/30 09:45:56;;;;;;;5.90;3.17;;;;;;;13.73;100.00;101898.59;4870376;29;20057;-71
2022/10/30 09:48:52;;;;;;;6.95;3.20;;;;;;;13.65;100.00;101900.03;4866113;29;20133;-71
2022/10/30 09:51:37;;;;;;;4.40;2.60;;;;;;;13.56;100.00;101890.19;4866109;29;20053;-72
2022/10/30 09:54:15;;;;;;;10.27;4.03;;;;;;;13.62;100.00;101906.00;4871397;29;20049;-71
2022/10/30 09:56:48;;;;;;;6.00;3.40;;;;;;;13.62;100.00;101909.50;4876027;29;20144;-71
2022/10/30 09:59:28;;;;;;;7.07;3.20;;;;;;;13.60;100.00;101912.88;4875576;29;20057;-71
2022/10/30 10:02:02;;;;;;;4.70;3.05;;;;;;;13.59;100.00;101912.00;4874280;29;20053;-71
2022/10/30 10:04:42;;;;;;;3.58;2.50;;;;;;;13.60;100.00;101913.75;4873370;29;20584;-71
2022/10/30 10:07:20;;;;;;;5.80;3.28;;;;;;;13.62;100.00;101906.00;4873940;29;20065;-71
2022/10/30 10:09:51;;;;;;;11.63;4.90;;;;;;;13.58;100.00;101899.84;4873267;29;20134;-71
2022/10/30 10:12:28;;;;;;;10.63;5.13;;;;;;;13.56;100.00;101895.38;4873510;29;20499;-71
2022/10/30 10:14:58;;;;;;;8.57;3.50;;;;;;;13.54;100.00;101903.16;4867010;29;20061;-71
2022/10/30 10:17:32;;;;;;;6.90;4.10;;;;;;;13.52;100.00;101894.41;4874702;29;20448;-72
2022/10/30 10:20:04;;;;;;;7.15;3.95;;;;;;;13.54;100.00;101897.06;4874221;29;20113;-71
2022/10/30 10:22:41;;;;;;;9.00;4.88;;;;;;;13.53;100.00;101884.88;4872094;29;20049;-71
2022/10/30 10:25:14;;;;;;;10.98;3.78;;;;;;;13.49;100.00;101876.13;4873044;29;20104;-71
2022/10/30 10:28:00;;;;;;;9.40;4.32;;;;;;;13.43;100.00;101873.28;4873893;29;20053;-71
2022/10/30 10:30:33;;;;;;;5.03;2.97;;;;;;;13.38;100.00;101875.72;4874356;29;20056;-71
2022/10/30 10:33:26;;;;;;;5.75;2.90;;;;;;;13.32;100.00;101879.81;4875280;29;20499;-71
2022/10/30 10:36:10;;;;;;;9.10;3.63;;;;;;;13.29;100.00;101882.31;4872131;29;20052;-71
2022/10/30 10:38:56;;;;;;;8.52;3.33;;;;;;;13.30;100.00;101876.25;4875713;29;20636;-71
2022/10/30 10:41:34;;;;;;;7.45;3.25;;;;;;;13.30;100.00;101878.88;4873316;29;20068;-70
2022/10/30 10:44:16;;;;;;;5.72;2.85;;;;;;;13.29;100.00;101879.72;4871588;29;20432;-71
2022/10/30 10:47:02;;;;;;;5.47;2.83;;;;;;;13.29;100.00;101879.72;4873046;29;20527;-70
2022/10/30 10:49:47;;;;;;;7.18;3.15;;;;;;;13.28;100.00;101881.41;4874258;29;20056;-71
2022/10/30 10:52:21;;;;;;;6.95;3.83;;;;;;;13.23;100.00;101863.84;4868414;29;20117;-71
2022/10/30 10:54:53;;;;;;;7.28;3.20;;;;;;;13.21;100.00;101869.84;4871590;29;20514;-71
2022/10/30 10:57:28;;;;;;;3.88;2.75;;;;;;;13.22;100.00;101870.75;4873659;29;20140;-71
2022/10/30 11:00:02;;;;;;;5.90;2.58;;;;;;;13.21;100.00;101871.56;4872346;29;20759;-71
2022/10/30 11:02:39;;;;;;;5.20;2.70;;;;;;;13.20;100.00;101872.44;4869716;29;20080;-71
2022/10/30 11:05:14;;;;;;;4.95;2.80;;;;;;;13.18;100.00;101872.34;4867861;29;20057;-71
2022/10/30 11:07:48;;;;;;;5.80;2.30;;;;;;;13.19;100.00;101881.94;4873177;29;20443;-71
2022/10/30 11:10:19;;;;;;;6.70;2.65;;;;;;;13.20;100.00;101882.81;4869511;29;20060;-71
2022/10/30 11:12:48;;;;;;;8.93;2.20;;;;;;;13.19;100.00;101879.34;4862024;29;20420;-71
2022/10/30 11:15:27;;;;;;;7.18;2.72;;;;;;;13.18;100.00;101880.16;4875444;29;20052;-71
2022/10/30 11:18:01;;;;;;;5.32;2.03;;;;;;;13.15;100.00;101887.84;4871548;29;20572;-71
2022/10/30 11:20:59;;;;;;;4.88;3.13;;;;;;;13.12;100.00;101881.63;4867817;29;20045;-72
2022/10/30 11:23:43;;;;;;;7.28;3.55;;;;;;;13.09;100.00;101882.41;4876281;29;20059;-71
2022/10/30 11:26:31;;;;;;;4.93;2.35;;;;;;;13.09;100.00;101882.41;4869674;29;20165;-70